Sao Joao da Barra, Brazil
Current Conditions -  °F | °C
As of 10:00 AM on Wednesday 22 Oct 2014 (Local Time) from SBCP Reporting Station
Overcast Overcast  
Wind Chill: 72°   Ceiling: 10000
Heat Index: 72°   Visibility: 6mi
Dew Point: 64°   Wind: 7mph
Humidity: 78%   Direction: 210°SSW
Pressure: 30.18"   Gusts: NA
Location:  21.64°S, 41.05°W
Report Text: SBCP 221200Z 21006KT 9999 FEW015 OVC100 22/18 Q1022
Loading
Personal Weather Stations






























Interactive Weather Map
Tropical Storm Tracking
New forecast layout! Learn more

10-Day Weather Forecast

Advertisements
Track Severe Weather on mobile